KJKJ

Moorhead Municipal Airport

Moorhead, Minnesota, USA
METAR KJKJ 221735Z AUTO 17007KT 125V185 10SM SCT100 22/13 A3002 RMK AO2
Observed Flight Rules
May-22 @ 17:35 UTC (13 minutes ago) Visual Flight Rules
Wind Visibility Clouds
170° at 7 knots 10 miles
  • Scattered at 10,000' AGL
Temperatures Readings
Current 22°C / 72°F
Dewpoint 13°C / 55°F
Humidity 57%
Altimeter 30.02" Hg
Pressure 1017 hPa
Elevation 280
METAR KJKJ 221735Z AUTO 17007KT 125V185 10SM SCT100 22/13 A3002 RMK AO2
Observed Flight Rules
May-22 @ 17:35 UTC
(13 minutes ago)
VFR
Wind Visibility
170° at 7 knots 10 miles
Clouds
  • Scattered at 10,000' AGL
Temperature Dewpoint
22°C / 72°F 13°C / 55°F
Humidity Altimeter Pressure
57% 30.02" Hg 1017 hPa